Change the Weather History Date:

Thursday, April 18, 2013

  Actual Average (KCHS) Record (KCHS)
Temperature  
Mean Temperature 71 °F 65 °F  
Max Temperature 78 °F 77 °F 92 °F (1967)
Min Temperature 64 °F 54 °F 35 °F (2001)
Degree Days  
Heating Degree Days 0 3  
Month to date heating degree days 68  
Since 1 July heating degree days 1943  
Cooling Degree Days 6 3  
Month to date cooling degree days 40  
Year to date cooling degree days 74  
Growing Degree Days 21 (Base 50)    
Moisture  
Dew Point 65 °F    
Average Humidity 81    
Maximum Humidity 100    
Minimum Humidity 61    
Precipitation  
Precipitation 0.00 in 0.10 in 2.37 in (2014)
Month to date precipitation 1.76  
Year to date precipitation 12.14  
Sea Level Pressure  
Sea Level Pressure 30.11 in    
Wind  
Wind Speed 4 mph (ESE)    
Max Wind Speed 14 mph    
Max Gust Speed 21 mph    
Visibility 9 miles    
Events      
T = Trace of Precipitation, MM = Missing Value Source: NWS Daily Summary

Daily Weather History Graph

Daily Weather History Graph

Search for Another Location

Airport or City:

Trip Planner

Search our weather history database for the weather conditions in past years. The results will help you decide how hot, cold, wet, or windy it might be!

Date:

Astronomy

Apr. 18, 2013 Rise Set
Actual Time 6:46 AM EDT 7:52 PM EDT
Civil Twilight 6:21 AM EDT 8:17 PM EDT
Nautical Twilight 5:51 AM EDT 8:48 PM EDT
Astronomical Twilight 5:19 AM EDT 9:19 PM EDT
Moon 1:00 PM EDT (4/18) 2:01 AM EDT (4/18)
Length of Visible Light 13h 56m
Length of Day
13h 05m
First Quarter, 51% of the Moon is Illuminated
Apr 18
First Quarter
Apr 25
Full
May 2
Last Quarter
May 9
New
May 18
First Quarter

Hourly Weather History & Observations

Time (EDT) Temp. Dew Point Humidity Pressure Visibility Wind Dir Wind Speed Gust Speed Precip Events Conditions
12:15 AM 64.4 °F 62.6 °F 94% 30.16 in 9.0 mi Calm Calm - 0.00 in   Clear
12:35 AM 64.4 °F 62.6 °F 94% 30.16 in 9.0 mi Calm Calm - 0.00 in   Clear
12:55 AM 64.4 °F 62.6 °F 94% 30.15 in 10.0 mi Calm Calm - 0.00 in   Clear
1:15 AM 64.4 °F 62.6 °F 94% 30.14 in 8.0 mi Calm Calm - 0.00 in   Clear
1:35 AM 64.4 °F 62.6 °F 94% 30.14 in 8.0 mi Calm Calm - 0.00 in   Clear
1:55 AM 66.2 °F 64.4 °F 94% 30.13 in 8.0 mi Calm Calm - 0.00 in   Clear
2:15 AM 66.2 °F 64.4 °F 94% 30.13 in 9.0 mi Calm Calm - 0.00 in   Clear
2:35 AM 66.2 °F 64.4 °F 94% 30.12 in 8.0 mi Calm Calm - 0.00 in   Scattered Clouds
2:55 AM 64.4 °F 62.6 °F 94% 30.11 in 8.0 mi Calm Calm - 0.00 in   Partly Cloudy
3:15 AM 66.2 °F 64.4 °F 94% 30.11 in 9.0 mi Calm Calm - 0.00 in   Mostly Cloudy
3:35 AM 66.2 °F 64.4 °F 94% 30.11 in 9.0 mi Calm Calm - 0.00 in   Mostly Cloudy
3:55 AM 66.2 °F 64.4 °F 94% 30.11 in 10.0 mi Calm Calm - 0.00 in   Mostly Cloudy
4:15 AM 66.2 °F 64.4 °F 94% 30.10 in 9.0 mi Calm Calm - 0.00 in   Partly Cloudy
4:35 AM 66.2 °F 64.4 °F 94% 30.10 in 9.0 mi East 4.6 mph - 0.00 in   Clear
4:55 AM 66.2 °F 64.4 °F 94% 30.10 in 10.0 mi East 5.8 mph - 0.00 in   Scattered Clouds
5:15 AM 68.0 °F 66.2 °F 94% 30.10 in 9.0 mi Calm Calm - 0.00 in   Mostly Cloudy
5:35 AM 68.0 °F 66.2 °F 94% 30.10 in 10.0 mi East 5.8 mph - 0.00 in   Partly Cloudy
5:55 AM 66.2 °F 66.2 °F 100% 30.11 in 10.0 mi ENE 5.8 mph - 0.00 in   Partly Cloudy
6:15 AM 66.2 °F 66.2 °F 100% 30.12 in 9.0 mi Calm Calm - 0.00 in   Clear
6:35 AM 66.2 °F 66.2 °F 100% 30.12 in 8.0 mi Calm Calm - 0.00 in   Clear
6:55 AM 66.2 °F 64.4 °F 94% 30.13 in 8.0 mi Calm Calm - 0.00 in   Partly Cloudy
7:15 AM 66.2 °F 66.2 °F 100% 30.13 in 5.0 mi Calm Calm - 0.00 in   Clear
7:35 AM 68.0 °F 66.2 °F 94% 30.14 in 7.0 mi Calm Calm - 0.00 in   Scattered Clouds
7:55 AM 69.8 °F 66.2 °F 88% 30.14 in 8.0 mi Calm Calm - 0.00 in   Mostly Cloudy
8:15 AM 71.6 °F 69.8 °F 94% 30.14 in 9.0 mi East 6.9 mph - 0.00 in   Mostly Cloudy
8:35 AM 73.4 °F 68.0 °F 83% 30.15 in 10.0 mi East 5.8 mph - 0.00 in   Partly Cloudy
8:55 AM 73.4 °F 68.0 °F 83% 30.14 in 10.0 mi ESE 6.9 mph - 0.00 in   Mostly Cloudy
9:15 AM 71.6 °F 66.2 °F 83% 30.15 in 10.0 mi SSE 6.9 mph - 0.00 in   Overcast
9:35 AM 71.6 °F 68.0 °F 88% 30.15 in 7.0 mi SSE 4.6 mph - 0.00 in   Overcast
9:55 AM 71.6 °F 66.2 °F 83% 30.15 in 10.0 mi Calm Calm - 0.00 in   Overcast
10:15 AM 75.2 °F 66.2 °F 73% 30.15 in 10.0 mi ESE 8.1 mph - 0.00 in   Mostly Cloudy
10:35 AM 75.2 °F 66.2 °F 73% 30.15 in 10.0 mi ESE 10.4 mph - 0.00 in   Partly Cloudy
10:55 AM 75.2 °F 66.2 °F 73% 30.15 in 10.0 mi ESE 10.4 mph 17.3 mph 0.00 in   Mostly Cloudy
11:15 AM 77.0 °F 66.2 °F 69% 30.15 in 10.0 mi ESE 11.5 mph - 0.00 in   Scattered Clouds
11:35 AM 78.8 °F 66.2 °F 65% 30.15 in 10.0 mi ESE 13.8 mph 18.4 mph 0.00 in   Partly Cloudy
11:55 AM 78.8 °F 64.4 °F 61% 30.15 in 10.0 mi ESE 12.7 mph - 0.00 in   Partly Cloudy
12:15 PM 78.8 °F 64.4 °F 61% 30.14 in 10.0 mi ESE 12.7 mph 20.7 mph 0.00 in   Partly Cloudy
12:35 PM 78.8 °F 64.4 °F 61% 30.15 in 10.0 mi SE 11.5 mph 17.3 mph 0.00 in   Clear
12:55 PM 78.8 °F 64.4 °F 61% 30.14 in 10.0 mi SE 12.7 mph 17.3 mph 0.00 in   Partly Cloudy
1:15 PM 78.8 °F 64.4 °F 61% 30.14 in 10.0 mi SE 9.2 mph 17.3 mph 0.00 in   Scattered Clouds
1:35 PM 77.0 °F 64.4 °F 65% 30.13 in 10.0 mi SE 9.2 mph 16.1 mph 0.00 in   Mostly Cloudy
1:55 PM 78.8 °F 64.4 °F 61% 30.13 in 10.0 mi East 11.5 mph 16.1 mph 0.00 in   Scattered Clouds
2:15 PM 78.8 °F 64.4 °F 61% 30.13 in 10.0 mi ESE 11.5 mph 16.1 mph 0.00 in   Scattered Clouds
2:35 PM 78.8 °F 64.4 °F 61% 30.12 in 10.0 mi SE 13.8 mph 17.3 mph 0.00 in   Partly Cloudy
2:55 PM 78.8 °F 64.4 °F 61% 30.12 in 10.0 mi ESE 13.8 mph - 0.00 in   Partly Cloudy
3:15 PM 78.8 °F 64.4 °F 61% 30.11 in 10.0 mi ESE 11.5 mph 18.4 mph 0.00 in   Partly Cloudy
3:35 PM 78.8 °F 64.4 °F 61% 30.10 in 10.0 mi East 12.7 mph 17.3 mph 0.00 in   Partly Cloudy
3:55 PM 78.8 °F 64.4 °F 61% 30.10 in 10.0 mi SE 9.2 mph 16.1 mph 0.00 in   Partly Cloudy
4:35 PM 78.8 °F 64.4 °F 61% 30.09 in 10.0 mi SE 9.2 mph - 0.00 in   Scattered Clouds
4:55 PM 77.0 °F 64.4 °F 65% 30.08 in 10.0 mi SE 11.5 mph - 0.00 in   Partly Cloudy
5:15 PM 77.0 °F 64.4 °F 65% 30.08 in 10.0 mi ESE 9.2 mph - 0.00 in   Partly Cloudy
5:35 PM 77.0 °F 64.4 °F 65% 30.08 in 10.0 mi ESE 10.4 mph 16.1 mph 0.00 in   Partly Cloudy
5:55 PM 75.2 °F 64.4 °F 69% 30.08 in 10.0 mi ESE 9.2 mph - 0.00 in   Partly Cloudy
6:15 PM 75.2 °F 64.4 °F 69% 30.08 in 10.0 mi ESE 8.1 mph - 0.00 in   Scattered Clouds
6:35 PM 75.2 °F 64.4 °F 69% 30.07 in 10.0 mi ESE 9.2 mph - 0.00 in   Partly Cloudy
6:55 PM 73.4 °F 64.4 °F 73% 30.06 in 10.0 mi ESE 6.9 mph - 0.00 in   Partly Cloudy
7:15 PM 73.4 °F 64.4 °F 73% 30.05 in 10.0 mi East 9.2 mph - 0.00 in   Partly Cloudy
7:35 PM 73.4 °F 66.2 °F 78% 30.05 in 10.0 mi East 8.1 mph - 0.00 in   Clear
7:55 PM 71.6 °F 66.2 °F 83% 30.05 in 10.0 mi East 5.8 mph - 0.00 in   Partly Cloudy
8:15 PM 71.6 °F 66.2 °F 83% 30.05 in 10.0 mi East 4.6 mph - 0.00 in   Clear
8:35 PM 71.6 °F 66.2 °F 83% 30.06 in 10.0 mi East 4.6 mph - 0.00 in   Clear
8:55 PM 71.6 °F 66.2 °F 83% 30.06 in 10.0 mi East 5.8 mph - 0.00 in   Partly Cloudy
9:15 PM 69.8 °F 66.2 °F 88% 30.06 in 10.0 mi Calm Calm - 0.00 in   Mostly Cloudy
9:35 PM 69.8 °F 66.2 °F 88% 30.07 in 10.0 mi Calm Calm - 0.00 in   Mostly Cloudy
11:35 PM 69.8 °F 68.0 °F 94% 30.05 in 9.0 mi SE 5.8 mph - 0.00 in   Clear
11:55 PM 71.6 °F 68.0 °F 88% 30.05 in 10.0 mi SSE 4.6 mph - 0.00 in   Clear